Date,TemperatureHighF,TemperatureAvgF,TemperatureLowF,DewpointHighF,DewpointAvgF,DewpointLowF,HumidityHigh,HumidityAvg,HumidityLow,PressureMaxIn,PressureMinIn,WindSpeedMaxMPH,WindSpeedAvgMPH,GustSpeedMaxMPH,PrecipitationSumIn
2014-1-1,59.0,51.3,45.0,57.0,50.4,43.0,100,97,87,30.38,30.07,6,1,8,0.04
2014-1-2,58.0,51.0,39.0,58.0,44.5,32.0,100,80,57,30.50,30.03,14,5,26,0.17
2014-1-3,48.0,36.7,30.0,32.0,29.4,27.0,95,77,47,30.60,30.39,6,1,16,0.01
2014-1-4,65.0,44.6,26.0,52.0,38.4,-99.9,99,83,61,30.43,30.04,9,3,14,0.00
2014-1-5,71.0,53.4,35.0,65.0,50.4,31.0,97,89,78,30.36,29.83,13,5,25,0.07
2014-1-6,34.0,30.5,27.0,29.0,21.1,15.0,88,69,51,30.80,30.40,14,8,26,0.04
2014-2-1,74.0,67.8,67.0,-99.9,-99.9,-99.9,0,0,100,29.98,29.91,5,2,12,0.00
2014-2-2,73.0,63.8,43.0,-99.9,-99.9,-99.9,0,0,100,30.13,29.83,13,4,20,0.00
2014-2-3,47.0,42.0,39.0,-99.9,-99.9,-99.9,0,0,100,30.30,30.13,11,6,22,0.00
2014-2-4,70.0,51.8,43.0,69.0,-21.9,-99.9,100,49,97,30.15,29.77,10,5,17,1.90
2014-2-5,51.0,42.8,37.0,44.0,39.9,34.0,100,90,77,30.46,30.15,16,7,25,0.60
2014-2-6,43.0,35.4,31.0,36.0,32.5,30.0,97,89,76,30.58,30.40,12,6,22,0.00
2014-2-7,47.0,37.8,29.0,39.0,34.2,29.0,98,88,69,30.51,30.28,7,3,20,0.10
2014-2-8,61.0,47.6,38.0,53.0,44.1,37.0,98,89,72,30.37,30.12,6,1,12,0.30
2014-2-9,68.0,63.0,58.0,60.0,59.1,57.0,98,87,70,30.15,30.05,5,1,8,0.00
2014-2-10,59.0,50.1,39.0,59.0,49.7,39.0,100,99,97,30.19,30.06,9,3,18,0.50
2014-2-11,39.0,36.1,33.0,39.0,36.1,33.0,100,100,99,30.29,30.15,12,6,23,1.88
2014-2-12,37.0,35.4,34.0,36.0,35.0,34.0,100,99,98,30.23,30.09,10,7,20,0.80
2014-2-13,57.0,42.9,30.0,44.0,37.7,30.0,100,84,51,30.24,30.01,5,1,9,0.00
2014-2-14,67.0,56.3,36.0,61.0,53.3,36.0,100,90,74,30.09,29.82,11,4,18,0.00
2014-2-15,67.0,55.9,45.0,52.0,38.6,-99.9,94,57,33,30.27,30.06,6,2,14,0.00
2014-2-16,72.0,56.5,40.0,63.0,53.1,40.0,100,89,68,30.24,30.05,5,1,7,0.00
2014-2-17,76.0,66.9,58.0,68.0,63.7,57.0,98,90,73,30.14,30.01,7,2,14,0.00
2014-2-18,75.0,67.4,64.0,68.0,65.3,63.0,100,94,77,30.14,29.99,5,1,10,0.00
2014-2-19,78.0,69.7,66.0,68.0,66.2,64.0,99,90,62,30.06,29.89,5,1,13,0.00
2014-2-20,78.0,71.4,65.0,72.0,68.7,62.0,99,92,74,29.96,29.78,7,4,16,9.60
2014-2-21,67.0,56.5,45.0,62.0,41.3,33.0,91,61,32,30.21,29.96,14,3,25,0.30
2014-2-22,70.0,56.6,43.0,56.0,43.6,-99.9,97,68,32,30.20,29.96,9,2,16,0.00
2014-2-23,68.0,63.9,58.0,68.0,62.7,56.0,100,96,79,30.03,29.93,5,0,7,1.10
2014-2-24,68.0,63.6,56.0,65.0,62.0,55.0,100,95,88,30.16,30.01,8,2,12,1.00
2014-2-25,64.0,61.0,56.0,63.0,59.9,56.0,100,97,92,30.09,29.96,5,1,10,1.00
2014-2-26,55.0,45.5,39.0,55.0,42.7,34.0,100,90,74,30.23,29.94,14,8,24,7.90
2014-2-27,57.0,42.8,31.0,39.0,35.3,30.0,97,77,47,30.28,30.03,6,2,15,0.10
2014-2-28,63.0,51.9,33.0,57.0,47.2,33.0,100,85,62,30.15,29.94,7,2,13,0.00
2014-3-1,78.0,67.2,60.0,68.0,61.4,-99.9,98,85,69,30.10,30.00,6,2,13,0.00
2014-3-2,78.0,69.5,63.0,69.0,66.0,62.0,99,90,70,30.10,29.91,7,3,20,0.00
2014-3-3,50.0,39.9,31.0,50.0,38.2,29.0,100,94,85,30.36,30.05,14,9,24,3.40
2014-3-4,33.0,31.0,30.0,33.0,30.6,29.0,100,99,96,30.36,30.26,8,2,14,0.10
2014-3-16,70.0,67.6,65.0,64.0,60.8,59.0,93,80,72,29.75,29.63,6,4,12,0.10
2014-3-18,53.0,52.5,51.0,49.0,48.8,48.0,90,88,86,29.97,29.93,2,1,6,0.00
2014-3-19,73.0,56.4,48.0,60.0,52.3,47.0,98,88,62,30.09,29.94,3,1,8,0.00
2014-3-21,74.0,55.0,46.0,58.0,49.0,45.0,98,83,48,30.08,30.04,5,1,10,0.00
2014-3-24,54.0,54.0,54.0,-99.9,-99.9,-99.9,0,0,100,0.00,40.00,0,0,0,0.00
2014-5-13,78.0,71.2,70.0,70.0,68.5,68.0,95,92,73,30.03,29.96,2,1,9,0.01
2014-5-14,69.0,64.4,57.0,68.0,60.6,50.0,96,87,73,30.17,29.97,8,4,18,0.01
2014-5-15,72.0,60.4,48.0,51.0,47.0,44.0,95,65,36,30.26,30.14,7,2,14,0.00
2014-5-16,81.0,67.4,52.0,60.0,54.8,49.0,95,67,43,30.19,30.06,3,1,10,0.00
2014-5-17,82.0,69.5,60.0,65.0,57.9,-99.9,96,72,49,30.14,30.06,3,1,6,0.00
2014-5-18,84.0,72.0,60.0,67.0,61.5,57.0,98,73,45,30.16,30.06,4,1,10,0.00
2014-5-27,82.0,75.8,70.0,74.0,71.1,67.0,96,86,68,30.04,29.91,4,1,13,0.05
2014-5-28,82.0,71.7,67.0,73.0,68.6,66.0,98,91,69,29.93,29.80,8,2,17,0.61
2014-5-29,78.0,73.1,71.0,72.0,70.8,69.0,97,93,83,29.84,29.77,3,1,9,0.04
2014-5-30,82.0,74.0,69.0,75.0,70.7,68.0,97,90,77,29.88,29.81,2,0,9,0.01
2014-5-31,86.0,71.3,72.0,74.0,56.6,-99.9,96,75,63,29.92,29.84,5,2,10,0.02
2014-6-1,83.0,76.7,73.0,73.0,72.2,71.0,95,87,69,29.98,29.94,8,4,16,0.03
2014-6-2,86.0,77.8,71.0,75.0,72.0,70.0,97,84,62,30.03,29.98,6,2,12,0.02
2014-6-3,85.0,76.0,70.0,74.0,71.6,69.0,99,87,68,30.03,29.94,5,1,12,0.02
2014-6-4,86.0,78.2,71.0,76.0,73.0,70.0,98,85,68,29.96,29.86,4,1,9,0.01
2014-6-5,90.0,82.7,74.0,75.0,73.9,72.0,98,76,59,29.92,29.85,3,1,6,0.02
2014-6-6,92.0,83.1,72.0,76.0,74.0,71.0,99,76,53,29.98,29.88,3,1,7,0.01
2014-6-7,92.0,78.5,73.0,78.0,65.2,-99.9,98,74,57,29.99,29.90,1,0,7,0.00
2014-6-8,90.0,81.0,72.0,76.0,73.8,71.0,98,81,57,29.98,29.83,2,1,6,0.01
2014-6-9,89.0,81.7,73.0,75.0,72.7,70.0,91,76,60,29.91,29.83,4,1,9,0.01
2014-6-17,91.0,87.2,74.0,74.0,73.8,73.0,97,67,58,30.10,30.05,1,0,9,0.00
2014-6-18,90.0,80.3,73.0,75.0,72.4,70.0,97,79,57,30.07,30.02,2,1,4,0.00
2014-6-19,88.0,79.6,71.0,72.0,71.1,70.0,98,78,60,30.09,30.04,2,1,8,0.00
2014-6-20,84.0,78.2,71.0,76.0,72.8,70.0,98,84,74,30.10,30.01,2,1,5,0.00
2014-6-21,89.0,72.2,73.0,74.0,55.1,-99.9,97,72,58,30.03,29.92,1,0,4,0.00
2014-6-22,90.0,83.7,74.0,76.0,73.8,72.0,97,74,56,29.98,29.91,2,1,9,0.00
2014-6-23,90.0,83.4,78.0,77.0,73.0,67.0,90,74,47,29.97,29.91,1,0,4,0.00
2014-6-24,80.0,75.0,71.0,75.0,72.6,70.0,97,92,85,30.06,30.00,1,0,3,0.00
2014-6-25,84.0,78.7,75.0,77.0,74.3,72.0,90,86,79,30.10,30.02,2,1,8,0.00
2014-6-26,87.0,82.2,72.0,79.0,76.2,71.0,98,83,73,30.07,29.95,2,1,7,0.00
2014-6-27,74.0,71.2,70.0,72.0,69.6,68.0,98,95,94,30.01,29.99,3,2,9,0.00
2014-6-28,-200.0,0.0,200.0,-99.9,-99.9,-99.9,0,0,100,30.06,30.06,1,1,5,0.00
2014-6-29,89.0,82.2,77.0,78.0,77.0,76.0,97,85,68,30.13,30.04,1,0,3,0.00
2014-6-30,91.0,84.5,78.0,77.0,76.5,76.0,93,78,64,30.04,30.03,2,1,7,0.00
2014-7-16,84.0,77.8,70.0,72.0,68.7,64.0,97,75,56,30.00,29.94,1,0,7,0.00
2014-7-17,81.0,75.2,66.0,74.0,68.7,62.0,91,81,69,29.99,29.93,3,1,6,0.00
2014-7-18,76.0,74.5,73.0,74.0,73.1,72.0,98,96,92,29.95,29.88,4,2,9,0.00
2014-7-19,81.0,77.7,74.0,76.0,75.1,73.0,98,93,85,29.99,29.93,2,1,5,0.00
2014-7-20,85.0,78.0,73.0,78.0,74.4,72.0,96,89,76,29.99,29.97,2,1,7,0.00
2014-7-21,91.0,81.5,74.0,78.0,75.4,73.0,99,83,64,30.03,29.96,3,1,8,0.00
2014-7-22,89.0,79.4,72.0,75.0,72.3,70.0,95,81,58,30.03,29.97,1,1,5,0.00
2014-7-27,88.0,80.3,76.0,77.0,75.7,75.0,97,87,69,30.03,30.01,0,0,3,0.00
2014-7-28,78.0,76.7,76.0,76.0,75.3,75.0,98,96,93,30.08,30.03,0,0,0,0.00
2014-7-29,88.0,79.6,75.0,75.0,72.8,68.0,97,82,59,30.08,29.99,3,1,9,0.00
2014-7-30,83.0,75.1,70.0,68.0,67.4,67.0,94,78,58,30.07,29.98,2,1,7,0.00
2014-7-31,88.0,60.4,69.0,74.0,54.4,67.0,96,76,56,30.02,29.94,3,1,10,0.00
2014-8-1,86.0,78.6,76.0,77.0,75.4,74.0,96,91,75,29.98,29.91,1,0,3,0.00
2014-8-2,88.0,80.4,76.0,75.0,74.6,74.0,97,84,65,29.94,29.90,0,0,3,0.00
2014-8-6,93.0,83.9,75.0,78.0,75.1,73.0,97,77,54,30.04,29.96,4,1,8,0.00
2014-8-7,91.0,80.0,74.0,76.0,74.0,73.0,96,83,55,29.97,29.90,1,0,4,0.00
2014-8-8,89.0,83.1,76.0,79.0,76.0,74.0,95,80,65,30.00,29.90,1,0,4,0.00
2014-8-9,85.0,70.4,76.0,78.0,67.1,74.0,96,79,76,30.01,29.95,1,0,7,0.00
2014-8-10,85.0,78.1,73.0,79.0,75.1,71.0,96,91,81,30.05,29.97,3,0,6,0.00
2014-8-11,89.0,80.7,74.0,80.0,75.4,68.0,97,85,73,30.03,29.94,9,2,16,0.00
2014-8-12,91.0,82.7,71.0,78.0,73.9,70.0,98,77,56,29.99,29.88,4,1,9,0.00
2014-9-6,87.0,75.3,72.0,79.0,72.1,71.0,98,89,72,30.06,29.95,2,0,10,0.00
2014-9-7,90.0,77.4,71.0,78.0,73.3,70.0,99,89,63,30.00,29.90,5,0,10,0.00
2014-9-8,91.0,80.2,72.0,78.0,74.5,71.0,98,84,62,30.01,29.91,3,0,8,0.00
2014-9-9,93.0,79.9,73.0,79.0,75.1,72.0,98,87,57,30.01,29.89,2,0,7,0.00
2014-9-10,94.0,81.5,72.0,79.0,74.7,71.0,98,82,55,29.94,29.86,2,0,6,0.00
2014-9-11,93.0,79.9,73.0,79.0,74.7,72.0,98,86,58,29.97,29.89,9,1,13,0.00
2014-9-12,91.0,78.6,72.0,79.0,74.9,71.0,98,90,65,30.02,29.91,3,1,7,0.00
2014-11-1,59.0,48.4,39.0,48.0,32.7,27.0,80,57,29,30.42,30.23,6,2,15,0.00
2014-11-2,65.0,48.4,33.0,44.0,37.5,31.0,95,70,30,30.44,30.31,5,1,11,0.00
2014-11-3,73.0,58.4,41.0,55.0,48.8,40.0,97,73,51,30.36,30.24,6,2,13,0.00
2014-11-4,80.0,67.9,58.0,65.0,60.0,55.0,90,77,54,30.24,30.09,8,2,15,0.00
2014-11-5,75.0,68.8,62.0,69.0,65.9,61.0,97,90,82,30.15,30.08,5,1,11,0.03
2014-11-6,70.0,64.5,55.0,67.0,61.9,53.0,98,92,75,30.21,30.13,7,2,12,0.38
2014-11-7,62.0,53.3,46.0,54.0,44.3,37.0,93,73,42,30.24,30.05,6,1,16,0.01
2014-11-18,49.0,38.1,30.0,30.0,26.8,23.0,94,66,43,30.52,30.39,7,2,14,0.03
2014-11-19,60.0,46.2,27.0,43.0,31.9,26.0,96,64,28,30.45,30.28,2,1,6,0.18
2014-11-20,72.0,56.9,44.0,54.0,49.1,43.0,98,78,49,30.27,30.14,3,1,8,0.02
2014-11-21,72.0,62.9,53.0,54.0,48.5,41.0,87,63,32,30.26,30.17,10,4,18,0.01
2014-11-22,71.0,59.6,53.0,62.0,55.0,50.0,93,80,71,30.21,29.85,8,4,16,0.01
2014-11-23,72.0,66.6,62.0,67.0,63.0,60.0,96,88,71,29.84,29.58,6,3,12,0.04
2014-11-24,66.0,57.0,49.0,65.0,45.8,40.0,95,67,47,30.11,29.73,7,3,16,0.01
2014-11-25,55.0,47.1,35.0,42.0,36.3,33.0,95,68,45,30.25,30.11,5,1,11,0.00
2014-11-26,69.0,51.4,34.0,49.0,41.3,33.0,98,73,36,30.28,30.14,6,2,16,0.01
2014-11-27,61.0,50.0,40.0,46.0,37.2,33.0,96,65,37,30.47,30.29,9,2,17,0.01
2014-11-28,66.0,48.6,34.0,50.0,40.4,32.0,93,76,36,30.42,30.19,6,1,12,0.00
2014-11-29,75.0,60.7,50.0,62.0,54.8,48.0,98,81,55,30.19,30.09,6,1,13,0.00
2014-11-30,78.0,66.3,58.0,63.0,60.0,57.0,97,82,55,30.20,30.11,3,1,12,0.00
2014-12-1,80.0,66.0,54.0,66.0,59.9,53.0,98,83,49,30.30,30.20,4,1,8,0.00
2014-12-2,63.0,55.1,48.0,62.0,51.2,46.0,95,87,72,30.32,30.19,7,2,10,0.00
2014-12-3,72.0,56.6,44.0,60.0,52.0,43.0,97,86,67,30.26,30.14,5,1,9,0.00
2014-12-4,76.0,63.2,54.0,67.0,60.2,53.0,97,90,73,30.22,30.12,7,2,11,0.00
2014-12-5,79.0,70.5,64.0,70.0,66.8,63.0,98,89,67,30.18,30.09,5,2,11,0.00
2014-12-6,77.0,66.4,57.0,70.0,62.5,51.0,99,86,68,30.31,30.16,10,2,16,0.00
2014-12-7,60.0,52.0,46.0,51.0,45.6,42.0,93,80,58,30.37,30.22,8,3,16,0.00
2014-12-8,64.0,48.9,38.0,47.0,43.1,37.0,97,82,54,30.30,30.21,7,2,12,0.00
2014-12-9,69.0,49.7,36.0,50.0,42.0,35.0,98,78,42,30.33,30.20,4,1,10,0.00
2014-12-10,61.0,45.0,39.0,45.0,37.3,37.0,95,68,52,30.33,30.19,3,1,10,0.00
2014-12-11,63.0,49.6,40.0,45.0,40.9,37.0,92,72,45,30.30,30.21,3,0,9,0.00
2014-12-12,73.0,57.2,43.0,52.0,47.8,42.0,95,74,43,30.36,30.25,3,1,9,0.00
2014-12-13,73.0,58.8,48.0,54.0,49.7,46.0,96,75,40,30.32,30.17,6,1,11,0.00
2014-12-14,73.0,57.7,45.0,53.0,48.9,44.0,98,74,44,30.17,30.02,7,2,14,0.00
2014-12-15,76.0,67.4,59.0,67.0,62.8,54.0,94,85,70,30.07,29.91,9,3,15,0.00
2014-12-16,64.0,55.5,45.0,54.0,39.7,37.0,77,56,43,30.29,30.07,6,3,16,0.00
2014-12-17,61.0,48.5,37.0,44.0,40.3,35.0,96,75,51,30.29,30.15,5,1,10,0.00
2014-12-18,67.0,55.8,47.0,59.0,50.8,42.0,95,84,71,30.17,30.06,6,2,12,0.00
2014-12-19,58.0,54.0,48.0,56.0,52.9,47.0,97,96,92,30.10,30.02,5,3,13,0.05
2014-12-20,52.0,41.0,42.0,49.0,38.9,40.0,98,91,88,30.19,30.09,8,3,14,0.03
2014-12-21,54.0,48.4,41.0,51.0,47.3,40.0,99,97,89,30.17,29.92,2,0,5,0.03
2014-12-22,74.0,61.7,48.0,66.0,59.1,47.0,99,92,69,29.92,29.64,10,2,16,0.01
2014-12-23,71.0,61.2,49.0,69.0,59.7,46.0,99,95,89,29.76,29.48,11,3,23,0.04
2014-12-24,51.0,46.1,37.0,47.0,40.0,36.0,95,80,60,30.14,29.75,8,4,20,0.04
2014-12-25,60.0,46.2,34.0,43.0,38.5,33.0,98,77,48,30.26,30.13,6,1,10,0.01
2014-12-26,59.0,53.9,46.0,58.0,51.4,42.0,97,91,82,30.17,30.07,8,3,16,0.00
2014-12-27,73.0,65.1,59.0,71.0,63.9,58.0,98,94,93,30.11,29.98,7,3,14,0.01
2014-12-28,65.0,52.5,48.0,64.0,51.3,47.0,97,96,92,30.18,30.05,7,4,12,0.01
2014-12-29,53.0,49.5,47.0,51.0,48.4,46.0,98,96,94,30.20,30.08,5,2,9,0.00
2014-12-30,49.0,42.5,34.0,48.0,41.2,34.0,98,95,90,30.44,30.20,8,3,19,0.00
2014-12-31,56.0,42.6,35.0,39.0,35.7,33.0,98,78,49,30.47,30.31,10,3,16,0.00
2015-1-1,54.0,46.4,42.0,53.0,41.7,36.0,96,84,77,30.37,30.12,6,3,14,0.00
2015-1-2,66.0,59.9,53.0,65.0,58.8,52.0,98,97,94,30.16,29.97,5,2,13,0.00